createdAt,value
2019-03-13T00:02:31.860Z,58.26
2019-03-13T00:07:33.606Z,58.55
2019-03-13T00:12:35.405Z,57.73
2019-03-13T00:17:37.171Z,57.00
2019-03-13T00:22:38.760Z,56.82
2019-03-13T00:27:40.605Z,56.49
2019-03-13T00:32:42.391Z,56.11
2019-03-13T00:37:44.082Z,54.99
2019-03-13T00:42:45.741Z,54.97
2019-03-13T00:47:47.288Z,53.60
2019-03-13T00:52:49.018Z,53.72
2019-03-13T00:57:50.764Z,54.27
2019-03-13T01:02:53.654Z,54.41
2019-03-13T01:07:55.213Z,53.36
2019-03-13T01:12:56.756Z,52.86
2019-03-13T01:17:58.344Z,51.65
2019-03-13T01:22:59.906Z,52.46
2019-03-13T01:28:01.449Z,51.00
2019-03-13T01:33:04.940Z,50.32
2019-03-13T01:38:06.535Z,51.07
2019-03-13T01:43:08.320Z,50.16
2019-03-13T01:48:09.914Z,50.33
2019-03-13T01:53:11.585Z,50.07
2019-03-13T01:58:13.138Z,49.99
2019-03-13T02:03:14.689Z,49.86
2019-03-13T02:08:16.443Z,50.05
2019-03-13T02:13:18.099Z,50.63
2019-03-13T02:18:19.688Z,50.05
2019-03-13T02:23:21.277Z,49.74
2019-03-13T02:28:23.111Z,49.72
2019-03-13T02:33:24.664Z,50.29
2019-03-13T02:38:26.236Z,50.33
2019-03-13T02:43:27.831Z,49.50
2019-03-13T02:48:29.380Z,49.38
2019-03-13T02:53:32.083Z,49.20
2019-03-13T02:58:33.632Z,48.63
2019-03-13T03:03:37.146Z,49.00
2019-03-13T03:08:39.789Z,48.22
2019-03-13T03:13:41.552Z,48.96
2019-03-13T03:18:43.108Z,48.56
2019-03-13T03:23:45.390Z,47.72
2019-03-13T03:28:47.346Z,48.05
2019-03-13T03:33:59.824Z,47.96
2019-03-13T03:39:03.438Z,47.42
2019-03-13T03:44:07.438Z,47.63
2019-03-13T03:49:09.179Z,46.98
2019-03-13T03:54:10.773Z,46.63
2019-03-13T03:59:12.350Z,47.16
2019-03-13T04:04:13.939Z,47.06
2019-03-13T04:09:15.496Z,47.59
2019-03-13T04:14:17.088Z,47.37
2019-03-13T04:19:18.796Z,46.96
2019-03-13T04:24:20.338Z,47.51
2019-03-13T04:29:22.053Z,48.03
2019-03-13T04:34:23.696Z,47.77
2019-03-13T04:39:26.426Z,47.33
2019-03-13T04:44:27.972Z,47.37
2019-03-13T04:49:29.567Z,47.02
2019-03-13T04:54:31.257Z,47.12
2019-03-13T04:59:33.913Z,46.21
2019-03-13T05:04:35.504Z,47.44
2019-03-13T05:09:37.454Z,46.16
2019-03-13T05:14:39.021Z,47.19
2019-03-13T05:19:40.624Z,45.76
2019-03-13T05:24:42.191Z,46.22
2019-03-13T05:29:43.761Z,45.72
2019-03-13T05:34:45.317Z,45.88
2019-03-13T05:39:46.857Z,46.34
2019-03-13T05:44:48.402Z,46.27
2019-03-13T05:49:50.004Z,46.37
2019-03-13T05:54:51.635Z,46.14
2019-03-13T05:59:53.227Z,46.28
2019-03-13T06:04:55.158Z,46.62
2019-03-13T06:09:56.713Z,47.29
2019-03-13T06:14:58.272Z,46.65
2019-03-13T06:19:59.980Z,46.64
2019-03-13T06:25:01.734Z,46.65
2019-03-13T06:30:13.697Z,47.39
2019-03-13T06:35:15.340Z,47.50
2019-03-13T06:40:19.108Z,47.88
2019-03-13T06:45:23.192Z,47.52
2019-03-13T06:50:24.668Z,48.53
2019-03-13T06:55:26.329Z,49.47
2019-03-13T07:00:27.892Z,48.75
2019-03-13T07:05:31.357Z,47.86
2019-03-13T07:10:51.595Z,47.37
2019-03-13T07:15:58.210Z,46.27
2019-03-13T07:21:04.723Z,45.16
2019-03-13T07:26:17.107Z,45.63
2019-03-13T07:31:29.650Z,45.59
2019-03-13T07:36:31.260Z,44.48
2019-03-13T07:41:35.763Z,43.72
2019-03-13T07:46:39.413Z,43.44
2019-03-13T07:51:42.935Z,43.07
2019-03-13T07:56:57.279Z,42.07
2019-03-13T08:02:12.796Z,42.93
2019-03-13T08:07:32.995Z,42.80
2019-03-13T08:12:39.288Z,41.95
2019-03-13T08:17:56.092Z,42.58
2019-03-13T08:23:16.249Z,43.52
2019-03-13T08:28:22.739Z,44.13
2019-03-13T08:33:35.348Z,43.87
2019-03-13T08:38:41.393Z,43.12
2019-03-13T08:43:51.764Z,43.39
2019-03-13T08:49:04.235Z,43.01
2019-03-13T08:54:07.844Z,43.98
2019-03-13T08:59:24.437Z,43.32
2019-03-13T09:04:43.085Z,44.70
2019-03-13T09:09:44.624Z,44.90
2019-03-13T09:15:04.840Z,44.42
2019-03-13T09:20:15.922Z,46.74
2019-03-13T09:25:35.318Z,47.18
2019-03-13T09:30:55.688Z,46.83
2019-03-13T09:35:57.239Z,45.86
2019-03-13T09:41:04.461Z,47.37
2019-03-13T09:46:25.329Z,48.43
2019-03-13T09:51:26.889Z,48.82
2019-03-13T09:56:39.537Z,49.26
2019-03-13T10:01:45.908Z,50.12
2019-03-13T10:07:06.136Z,51.85
2019-03-13T10:12:10.621Z,54.59
2019-03-13T10:17:12.468Z,55.13
2019-03-13T10:22:14.017Z,55.77
2019-03-13T10:27:26.403Z,57.68
2019-03-13T10:32:30.784Z,56.88
2019-03-13T10:37:51.137Z,57.58
2019-03-13T10:43:00.536Z,57.93
2019-03-13T10:48:02.090Z,58.46
2019-03-13T10:53:06.953Z,58.44
2019-03-13T10:58:19.685Z,58.62
2019-03-13T11:03:23.198Z,58.58
2019-03-13T11:08:26.649Z,57.83
2019-03-13T11:13:42.061Z,58.74
2019-03-13T11:18:45.523Z,58.50
2019-03-13T11:23:47.220Z,58.12
2019-03-13T11:29:04.789Z,58.52
2019-03-13T11:34:26.545Z,58.45
2019-03-13T11:39:28.194Z,58.63
2019-03-13T11:44:40.741Z,58.63
2019-03-13T11:49:54.226Z,58.54
2019-03-13T11:54:55.781Z,58.58
2019-03-13T12:00:08.191Z,58.35
2019-03-13T12:05:13.853Z,58.45
2019-03-13T12:10:17.308Z,57.09
2019-03-13T12:15:29.590Z,57.24
2019-03-13T12:20:40.130Z,56.41
2019-03-13T12:25:46.315Z,53.40
2019-03-13T12:31:06.486Z,55.08
2019-03-13T12:36:26.926Z,53.72
2019-03-13T12:41:48.650Z,53.88
2019-03-13T12:46:57.916Z,52.60
2019-03-13T12:52:07.256Z,50.45
2019-03-13T12:57:27.506Z,50.88
2019-03-13T13:02:37.082Z,49.65
2019-03-13T13:07:41.364Z,51.41
2019-03-13T13:12:47.700Z,49.18
2019-03-13T13:18:03.257Z,50.36
2019-03-13T13:23:05.344Z,49.19
2019-03-13T13:28:07.149Z,47.16
2019-03-13T13:33:08.852Z,49.53
2019-03-13T13:38:10.572Z,49.56
2019-03-13T13:43:12.185Z,52.23
2019-03-13T13:48:13.748Z,53.21
2019-03-13T13:53:15.311Z,50.74
2019-03-13T13:58:16.861Z,50.72
2019-03-13T14:03:18.424Z,48.33
2019-03-13T14:08:20.050Z,47.37
2019-03-13T14:13:21.636Z,49.36
2019-03-13T14:18:23.262Z,50.86
2019-03-13T14:23:24.826Z,49.67
2019-03-13T14:28:26.418Z,50.15
2019-03-13T14:33:28.080Z,49.39
2019-03-13T14:38:29.637Z,50.91
2019-03-13T14:43:31.224Z,50.88
2019-03-13T14:48:32.843Z,50.93
2019-03-13T14:53:34.399Z,50.36
2019-03-13T14:58:35.960Z,50.08
2019-03-13T15:03:41.510Z,50.33
2019-03-13T15:08:43.380Z,49.58
2019-03-13T15:13:45.045Z,50.86
2019-03-13T15:18:46.750Z,51.21
2019-03-13T15:23:48.387Z,51.00
2019-03-13T15:28:49.948Z,52.14
2019-03-13T15:33:51.501Z,50.65
2019-03-13T15:38:54.008Z,51.72
2019-03-13T15:43:55.562Z,52.46
2019-03-13T15:48:57.152Z,53.16
2019-03-13T15:53:58.815Z,53.99
2019-03-13T15:59:00.385Z,55.17
2019-03-13T16:04:01.952Z,54.41
2019-03-13T16:09:06.188Z,54.77
2019-03-13T16:14:09.977Z,55.37
2019-03-13T16:19:11.570Z,55.02
2019-03-13T16:24:13.164Z,55.93
2019-03-13T16:29:14.748Z,55.07
2019-03-13T16:34:16.305Z,55.78
2019-03-13T16:39:18.193Z,56.43
2019-03-13T16:44:19.839Z,56.26
2019-03-13T16:49:21.388Z,56.66
2019-03-13T16:54:23.060Z,57.03
2019-03-13T16:59:24.776Z,56.52
2019-03-13T17:04:26.344Z,57.50
2019-03-13T17:09:28.069Z,57.41
2019-03-13T17:14:29.728Z,57.43
2019-03-13T17:19:31.291Z,57.89
2019-03-13T17:24:32.995Z,57.62
2019-03-13T17:29:34.576Z,57.57
2019-03-13T17:34:36.148Z,58.31
2019-03-13T17:39:37.758Z,57.73
2019-03-13T17:44:39.437Z,57.84
2019-03-13T17:49:40.985Z,57.54
2019-03-13T17:54:42.543Z,57.85
2019-03-13T17:59:44.112Z,57.96
2019-03-13T18:04:45.680Z,57.09
2019-03-13T18:09:47.397Z,57.19
2019-03-13T18:14:49.022Z,57.22
2019-03-13T18:19:51.159Z,57.88
2019-03-13T18:24:52.757Z,57.97
2019-03-13T18:29:54.324Z,57.77
2019-03-13T18:34:55.877Z,58.18
2019-03-13T18:39:57.436Z,57.51
2019-03-13T18:44:58.992Z,57.56
2019-03-13T18:50:00.589Z,58.02
2019-03-13T18:55:05.077Z,58.25
2019-03-13T19:00:17.334Z,58.80
2019-03-13T19:05:19.296Z,58.12
2019-03-13T19:10:27.302Z,58.63
2019-03-13T19:15:29.273Z,59.30
2019-03-13T19:20:31.150Z,59.23
2019-03-13T19:25:33.081Z,59.14
2019-03-13T19:30:37.880Z,59.21
2019-03-13T19:35:38.814Z,59.36
2019-03-13T19:40:40.674Z,59.09
2019-03-13T19:45:47.038Z,59.42
2019-03-13T19:50:48.610Z,59.41
2019-03-13T19:55:51.582Z,59.80
2019-03-13T20:00:53.367Z,60.48
2019-03-13T20:05:55.048Z,60.27
2019-03-13T20:10:58.264Z,60.77
2019-03-13T20:16:00.116Z,60.70
2019-03-13T20:21:01.772Z,61.95
2019-03-13T20:26:04.558Z,62.20
2019-03-13T20:31:06.432Z,62.25
2019-03-13T20:36:08.177Z,61.88
2019-03-13T20:41:09.886Z,62.11
2019-03-13T20:46:11.744Z,62.35
2019-03-13T20:51:13.401Z,62.76
2019-03-13T20:56:14.969Z,62.83
2019-03-13T21:01:16.644Z,62.90
2019-03-13T21:06:18.293Z,63.55
2019-03-13T21:11:20.187Z,63.33
2019-03-13T21:16:21.745Z,63.08
2019-03-13T21:21:23.407Z,63.43
2019-03-13T21:26:25.205Z,63.35
2019-03-13T21:31:27.957Z,63.54
2019-03-13T21:36:29.708Z,63.32
2019-03-13T21:41:31.411Z,63.37
2019-03-13T21:46:33.081Z,63.18
2019-03-13T21:51:34.624Z,63.56
2019-03-13T21:56:36.308Z,63.42
2019-03-13T22:01:38.103Z,63.51
2019-03-13T22:06:39.852Z,63.15
2019-03-13T22:11:41.964Z,63.54
2019-03-13T22:16:43.526Z,63.16
2019-03-13T22:21:45.513Z,63.19
2019-03-13T22:26:47.112Z,63.65
2019-03-13T22:31:49.068Z,63.29
2019-03-13T22:36:50.640Z,63.98
2019-03-13T22:41:52.329Z,63.74
2019-03-13T22:46:55.081Z,63.69
2019-03-13T22:51:56.641Z,63.27
2019-03-13T22:56:58.172Z,63.94
2019-03-13T23:01:59.844Z,63.61
2019-03-13T23:07:01.699Z,63.88
2019-03-13T23:12:03.716Z,63.58
2019-03-13T23:17:05.372Z,63.58
2019-03-13T23:22:06.927Z,63.31
2019-03-13T23:27:08.472Z,63.02
2019-03-13T23:32:10.064Z,63.21
2019-03-13T23:37:11.979Z,63.16
2019-03-13T23:42:13.650Z,62.80
2019-03-13T23:47:15.216Z,62.90
2019-03-13T23:52:16.790Z,63.17
2019-03-13T23:57:18.338Z,62.96
